createdAt,value
2023-03-01T00:02:13.318Z,102073.09
2023-03-01T00:07:15.481Z,102099.63
2023-03-01T00:12:17.604Z,102094.97
2023-03-01T00:17:19.625Z,102081.88
2023-03-01T00:22:21.661Z,102083.69
2023-03-01T00:27:23.698Z,102099.41
2023-03-01T00:32:25.860Z,102099.84
2023-03-01T00:37:27.842Z,102109.31
2023-03-01T00:42:29.883Z,102103.09
2023-03-01T00:47:31.914Z,102096.88
2023-03-01T00:52:33.911Z,102089.75
2023-03-01T00:57:35.908Z,102061.41
2023-03-01T01:02:37.981Z,102060.63
2023-03-01T01:07:40.115Z,102064.91
2023-03-01T01:12:42.101Z,102067.25
2023-03-01T01:17:45.015Z,102061.06
2023-03-01T01:22:46.985Z,102048.84
2023-03-01T01:27:48.969Z,102025.94
2023-03-01T01:32:50.980Z,102027.63
2023-03-01T01:37:52.961Z,102018.81
2023-03-01T01:42:54.924Z,102015.09
2023-03-01T01:48:01.726Z,102003.00
2023-03-01T01:53:03.769Z,101992.16
2023-03-01T01:58:10.424Z,101991.94
2023-03-01T02:03:20.220Z,101994.63
2023-03-01T02:08:24.266Z,101986.75
2023-03-01T02:13:26.546Z,101986.38
2023-03-01T02:18:28.660Z,101988.97
2023-03-01T02:23:31.067Z,101982.78
2023-03-01T02:28:45.229Z,101982.53
2023-03-01T02:33:49.840Z,101977.34
2023-03-01T02:38:54.868Z,101978.69
2023-03-01T02:43:57.049Z,101977.78
2023-03-01T02:49:00.365Z,101991.53
2023-03-01T02:54:14.845Z,101994.00
2023-03-01T02:59:23.498Z,101991.53
2023-03-01T03:04:25.614Z,101978.34
2023-03-01T03:09:27.638Z,101976.53
2023-03-01T03:14:29.625Z,101979.91
2023-03-01T03:19:31.618Z,101963.31
2023-03-01T03:24:39.384Z,101974.47
2023-03-01T03:29:41.545Z,101969.97
2023-03-01T03:34:43.667Z,101969.84
2023-03-01T03:39:45.684Z,101962.72
2023-03-01T03:44:47.722Z,101960.81
2023-03-01T03:49:49.718Z,101959.03
2023-03-01T03:54:51.706Z,101944.25
2023-03-01T03:59:53.665Z,101938.03
2023-03-01T04:04:55.615Z,101930.81
2023-03-01T04:09:57.627Z,101927.19
2023-03-01T04:14:59.625Z,101919.31
2023-03-01T04:20:06.916Z,101920.09
2023-03-01T04:25:09.279Z,101926.72
2023-03-01T04:30:12.185Z,101945.66
2023-03-01T04:35:14.159Z,101944.75
2023-03-01T04:40:17.885Z,101952.41
2023-03-01T04:45:20.218Z,101950.59
2023-03-01T04:50:23.003Z,101940.13
2023-03-01T04:55:27.024Z,101932.22
2023-03-01T05:00:29.073Z,101925.34
2023-03-01T05:05:37.400Z,101918.22
2023-03-01T05:10:42.124Z,101921.72
2023-03-01T05:15:45.896Z,101925.09
2023-03-01T05:20:48.564Z,101905.16
2023-03-01T05:25:51.885Z,101894.78
2023-03-01T05:30:53.918Z,101901.41
2023-03-01T05:35:56.049Z,101916.06
2023-03-01T05:40:58.174Z,101922.03
2023-03-01T05:46:01.197Z,101918.66
2023-03-01T05:51:03.275Z,101922.03
2023-03-01T05:56:05.975Z,101931.50
2023-03-01T06:01:12.869Z,101927.34
2023-03-01T06:06:14.900Z,101932.53
2023-03-01T06:11:17.144Z,101927.59
2023-03-01T06:16:19.322Z,101928.59
2023-03-01T06:21:22.197Z,101925.69
2023-03-01T06:26:24.969Z,101926.28
2023-03-01T06:31:27.180Z,101922.38
2023-03-01T06:36:29.330Z,101923.03
2023-03-01T06:41:31.560Z,101934.47
2023-03-01T06:46:34.473Z,101938.09
2023-03-01T06:51:38.245Z,101931.34
2023-03-01T06:56:40.753Z,101930.13
2023-03-01T07:01:42.878Z,101928.66
2023-03-01T07:06:45.098Z,101928.28
2023-03-01T07:11:48.240Z,101935.72
2023-03-01T07:16:50.491Z,101926.88
2023-03-01T07:21:52.621Z,101929.41
2023-03-01T07:26:54.992Z,101930.28
2023-03-01T07:31:57.114Z,101927.06
2023-03-01T07:36:59.274Z,101911.72
2023-03-01T07:42:02.224Z,101917.94
2023-03-01T07:47:07.682Z,101908.41
2023-03-01T07:52:15.600Z,101905.97
2023-03-01T07:57:18.271Z,101886.69
2023-03-01T08:02:20.476Z,101875.44
2023-03-01T08:07:22.544Z,101878.09
2023-03-01T08:12:24.927Z,101878.25
2023-03-01T08:17:27.189Z,101878.56
2023-03-01T08:22:29.239Z,101876.22
2023-03-01T08:27:31.284Z,101872.00
2023-03-01T08:32:38.787Z,101872.25
2023-03-01T08:37:40.817Z,101867.00
2023-03-01T08:42:45.627Z,101862.72
2023-03-01T08:47:52.180Z,101863.22
2023-03-01T08:52:54.318Z,101861.88
2023-03-01T08:57:57.072Z,101865.25
2023-03-01T09:03:00.518Z,101862.50
2023-03-01T09:08:02.967Z,101859.00
2023-03-01T09:13:05.234Z,101859.41
2023-03-01T09:18:07.398Z,101854.19
2023-03-01T09:23:13.698Z,101859.25
2023-03-01T09:28:29.466Z,101854.03
2023-03-01T09:33:36.000Z,101866.66
2023-03-01T09:38:43.303Z,101861.22
2023-03-01T09:44:02.486Z,101870.03
2023-03-01T09:49:28.520Z,101856.81
2023-03-01T09:54:32.966Z,101848.31
2023-03-01T09:59:49.230Z,101840.97
2023-03-01T10:04:55.891Z,101843.19
2023-03-01T10:09:59.513Z,101836.25
2023-03-01T10:15:20.744Z,101831.72
2023-03-01T10:20:35.807Z,101821.47
2023-03-01T10:25:54.279Z,101810.91
2023-03-01T10:31:16.010Z,101806.94
2023-03-01T10:36:53.031Z,101806.84
2023-03-01T10:42:03.972Z,101803.97
2023-03-01T10:47:24.968Z,101799.38
2023-03-01T10:52:38.803Z,101790.06
2023-03-01T10:57:44.969Z,101776.88
2023-03-01T11:03:12.295Z,101770.25
2023-03-01T11:08:18.457Z,101767.53
2023-03-01T11:13:22.211Z,101748.38
2023-03-01T11:18:46.294Z,101750.66
2023-03-01T11:23:51.317Z,101747.91
2023-03-01T11:29:00.414Z,101743.81
2023-03-01T11:34:22.779Z,101740.88
2023-03-01T11:39:57.417Z,101737.59
2023-03-01T11:45:03.655Z,101721.50
2023-03-01T11:50:18.246Z,101711.78
2023-03-01T11:55:38.780Z,101718.19
2023-03-01T12:00:50.663Z,101710.22
2023-03-01T12:06:16.589Z,101712.09
2023-03-01T12:11:34.193Z,101713.19
2023-03-01T12:17:13.128Z,101719.44
2023-03-01T12:22:32.845Z,101715.22
2023-03-01T12:27:47.044Z,101719.78
2023-03-01T12:33:11.458Z,101730.38
2023-03-01T12:38:26.781Z,101740.28
2023-03-01T12:44:07.714Z,101729.84
2023-03-01T12:49:17.934Z,101726.53
2023-03-01T12:54:38.892Z,101717.66
2023-03-01T13:00:11.767Z,101719.44
2023-03-01T13:05:26.337Z,101715.94
2023-03-01T13:10:36.269Z,101703.50
2023-03-01T13:15:40.816Z,101692.00
2023-03-01T13:21:09.811Z,101682.41
2023-03-01T13:26:15.687Z,101674.63
2023-03-01T13:31:20.718Z,101678.38
2023-03-01T13:36:37.671Z,101678.50
2023-03-01T13:41:40.596Z,101673.22
2023-03-01T13:46:45.925Z,101666.19
2023-03-01T13:51:50.361Z,101655.59
2023-03-01T13:56:53.094Z,101660.13
2023-03-01T14:07:46.956Z,101641.66
2023-03-01T14:13:14.513Z,101635.50
2023-03-01T14:18:37.631Z,101621.28
2023-03-01T14:23:46.591Z,101625.75
2023-03-01T14:28:57.240Z,101628.31
2023-03-01T14:34:02.548Z,101632.59
2023-03-01T14:39:25.676Z,101630.13
2023-03-01T14:44:28.289Z,101628.41
2023-03-01T14:50:18.166Z,101625.75
2023-03-01T15:00:38.406Z,101619.50
2023-03-01T15:05:44.388Z,101605.25
2023-03-01T15:17:37.616Z,101614.03
2023-03-01T15:29:03.400Z,101615.53
2023-03-01T15:34:26.745Z,101614.53
2023-03-01T15:39:39.833Z,101597.50
2023-03-01T15:44:47.813Z,101599.09
2023-03-01T15:50:39.476Z,101606.00
2023-03-01T15:55:46.977Z,101604.84
2023-03-01T16:01:01.270Z,101599.69
2023-03-01T16:06:05.923Z,101618.34
2023-03-01T16:11:20.340Z,101602.19
2023-03-01T16:16:32.743Z,101599.19
2023-03-01T16:21:35.623Z,101605.06
2023-03-01T16:26:39.365Z,101594.13
2023-03-01T16:31:42.353Z,101588.41
2023-03-01T16:36:45.503Z,101598.59
2023-03-01T16:41:48.008Z,101585.81
2023-03-01T16:46:49.935Z,101593.38
2023-03-01T16:51:54.555Z,101593.00
2023-03-01T16:56:56.925Z,101584.56
2023-03-01T17:02:17.419Z,101591.22
2023-03-01T17:07:20.386Z,101580.19
2023-03-01T17:12:26.042Z,101593.06
2023-03-01T17:17:30.013Z,101595.25
2023-03-01T17:22:40.160Z,101604.50
2023-03-01T17:27:43.628Z,101595.09
2023-03-01T17:33:02.445Z,101611.47
2023-03-01T17:38:50.716Z,101603.00
2023-03-01T17:43:55.344Z,101599.72
2023-03-01T17:48:58.189Z,101608.91
2023-03-01T17:54:01.342Z,101622.53
2023-03-01T17:59:06.790Z,101611.38
2023-03-01T18:04:15.509Z,101617.00
2023-03-01T18:09:28.396Z,101617.38
2023-03-01T18:14:46.259Z,101625.66
2023-03-01T18:20:32.535Z,101633.03
2023-03-01T18:25:44.024Z,101616.56
2023-03-01T18:30:46.923Z,101626.56
2023-03-01T18:35:52.584Z,101622.66
2023-03-01T18:41:00.050Z,101619.66
2023-03-01T18:46:06.058Z,101620.91
2023-03-01T18:51:20.778Z,101611.59
2023-03-01T18:56:33.011Z,101622.50
2023-03-01T19:01:43.240Z,101621.25
2023-03-01T19:06:46.686Z,101631.28
2023-03-01T19:11:49.684Z,101629.91
2023-03-01T19:16:53.782Z,101620.59
2023-03-01T19:22:05.661Z,101632.28
2023-03-01T19:27:11.463Z,101634.56
2023-03-01T19:32:17.106Z,101630.53
2023-03-01T19:37:20.252Z,101629.22
2023-03-01T19:42:28.364Z,101632.31
2023-03-01T19:47:31.652Z,101638.88
2023-03-01T19:52:35.547Z,101634.09
2023-03-01T19:57:39.291Z,101632.72
2023-03-01T20:02:44.111Z,101641.94
2023-03-01T20:07:48.416Z,101637.88
2023-03-01T20:12:53.631Z,101644.50
2023-03-01T20:17:58.248Z,101649.22
2023-03-01T20:23:00.964Z,101636.47
2023-03-01T20:28:05.150Z,101633.34
2023-03-01T20:33:08.466Z,101643.28
2023-03-01T20:38:11.552Z,101641.94
2023-03-01T20:43:14.413Z,101640.75
2023-03-01T20:48:17.519Z,101643.03
2023-03-01T20:53:20.450Z,101645.22
2023-03-01T20:58:25.249Z,101643.88
2023-03-01T21:03:28.428Z,101641.59
2023-03-01T21:08:36.320Z,101653.50
2023-03-01T21:13:38.769Z,101640.84
2023-03-01T21:18:41.431Z,101655.34
2023-03-01T21:23:44.496Z,101645.16
2023-03-01T21:28:47.715Z,101643.22
2023-03-01T21:33:55.519Z,101637.53
2023-03-01T21:39:01.111Z,101648.50
2023-03-01T21:44:06.414Z,101646.31
2023-03-01T21:49:09.170Z,101642.50
2023-03-01T21:54:13.823Z,101640.38
2023-03-01T21:59:22.198Z,101639.13
2023-03-01T22:04:25.305Z,101644.94
2023-03-01T22:09:27.787Z,101639.31
2023-03-01T22:14:31.738Z,101634.66
2023-03-01T22:19:33.868Z,101628.94
2023-03-01T22:24:36.047Z,101625.19
2023-03-01T22:29:38.048Z,101626.56
2023-03-01T22:34:40.061Z,101624.38
2023-03-01T22:39:42.053Z,101618.75
2023-03-01T22:44:44.135Z,101621.09
2023-03-01T22:49:46.156Z,101632.84
2023-03-01T22:54:48.247Z,101627.28
2023-03-01T22:59:50.200Z,101623.53
2023-03-01T23:04:54.416Z,101612.69
2023-03-01T23:10:00.623Z,101610.56
2023-03-01T23:15:02.713Z,101617.25
2023-03-01T23:20:10.638Z,101616.81
2023-03-01T23:25:13.924Z,101613.88
2023-03-01T23:30:16.463Z,101611.72
2023-03-01T23:35:18.599Z,101611.22
2023-03-01T23:40:20.885Z,101621.56
2023-03-01T23:45:22.950Z,101618.63
2023-03-01T23:50:25.393Z,101618.19
2023-03-01T23:55:29.751Z,101620.53
